Highlands Peak, California Weather observations

Data are for observation ending at time listed.
 Day   Time    Ave.   Ave.  Ave.  Vector   Max.   Stn.    Total    Solar   Ave.  
  of    of     Air    Rel.  Wind   Wind    Wind   Baro.  Precip.   Rad.    Soil  
Year   Day     Temp.  Hum.  Speed  Dir.    Gust   Pres.                    Temp. 
2016   (PST)    F      %     mph   deg.    mph     mb.     in.     W/m2     F   
------------------------------------------------------------------------------
 148   14:50   72.1    17    4.7   249      7.6   927.2    0.00     838    76.6
 148   15:00   72.1    16    5.5   261      9.2   927.1    0.00     813    77.0
 148   15:10   73.2    17    5.3   261      8.0   927.0    0.00     785    77.3
 148   15:20   72.6    18    5.0   256      7.5   926.9    0.00     757    77.7
 148   15:30   73.6    16    4.0   262      6.6   926.8    0.00     728    78.0
 148   15:40   73.3    16    5.3   264      7.2   926.7    0.00     698    78.4
 148   15:50   73.1    14    5.2   269      8.3   926.6    0.00     666    78.7
 148   16:00   72.8    15    5.8   266      8.7   926.6    0.00     633    79.0
 148   16:10   72.0    15    5.5   268      8.8   926.5    0.00     600    79.2
 148   16:20   72.1    15    5.4   274      8.5   926.5    0.00     566    79.5
 148   16:30   71.6    15    6.8   276      9.4   926.5    0.00     531    79.7
 148   16:40   71.3    16    5.3   276      8.3   926.3    0.00     495    80.0
 148   16:50   72.1    18    4.7   272      7.5   926.2    0.00     460    80.2
 148   17:00   71.1    17    4.6   270      7.7   926.2    0.00     423    80.4
 148   17:10   69.3    18    5.0   271      7.3   926.1    0.00     386    80.5
 148   17:20   69.5    21    1.7   305      4.2   926.0    0.00     350    80.6
 148   17:30   71.5    21    1.6    27      3.4   925.9    0.00     313    80.8
 148   17:40   71.6    23    2.7    34      4.1   925.9    0.00     278    80.9
 148   17:50   72.4    25    2.1   347      4.1   925.9    0.00     242    81.0
 148   18:00   73.8    26    3.9   301      6.7   925.9    0.00     208    81.1
 148   18:10   73.0    25    2.6   287      5.0   925.9    0.00     174    81.1
 148   18:20   72.7    26    1.9   307      3.3   925.9    0.00     142    81.1
 148   18:30   72.9    26    0.5   271      2.4   925.8    0.00     117    81.1
 148   18:40   72.5    27    1.0    32      2.4   925.8    0.00      90    81.0
 148   18:50   71.3    29    2.7   352      4.6   925.9    0.00      65    80.9
 148   19:00   71.2    30    2.9   292      5.4   925.9    0.00      41    80.9
 148   19:10   69.9    30    1.4    25      4.7   926.0    0.00      24    80.8
 148   19:20   69.3    30    1.7   334      2.4   926.0    0.00       8    80.7
 148   19:30   68.8    30    2.5   324      4.7   926.0    0.00       2    80.5
 148   19:40   68.4    29    4.7    18      6.6   925.9    0.00       0    80.4
 148   19:50   67.7    31    3.7   354      5.0   925.9    0.00       0    80.3
 148   20:00   67.4    31    3.7    17      4.2   925.9    0.00       0    80.1
 148   20:10   67.1    30    4.2    34      6.1   925.9    0.00       0    79.9
 148   20:20   67.3    30    5.8    53      9.3   926.0    0.00       0    79.7
 148   20:30   67.2    30    6.3    44      8.5   926.0    0.00       0    79.5
 148   20:40   67.3    30    6.3    52      8.9   926.0    0.00       0    79.2
 148   20:50   67.6    29    7.6    60      9.9   926.0    0.00       0    79.0
 148   21:00   68.7    28    5.9    53      7.6   926.0    0.00       0    78.7
 148   21:10   68.9    27    4.9    52      6.7   926.0    0.00       0    78.5
 148   21:20   68.8    27    6.3    57      9.4   926.0    0.00       0    78.3
 148   21:30   68.8    28    4.7    67      8.0   926.0    0.00       0    78.0
 148   21:40   68.9    28    3.1    97      4.3   926.0    0.00       0    77.8
 148   21:50   69.2    27    2.9    78      7.0   926.0    0.00       0    77.6
 148   22:00   68.3    28    5.2    47      8.9   925.9    0.00       0    77.4
 148   22:10   69.2    26    2.3    38      4.7   925.8    0.00       0    77.2
 148   22:20   69.2    26    3.5    46      7.1   925.7    0.00       0    77.0
 148   22:30   68.8    26    3.4    44      4.9   925.7    0.00       0    76.7
 148   22:40   69.0    26    3.6    36      4.9   925.7    0.00       0    76.6
 148   22:50   68.7    26    3.1    23      4.7   925.6    0.00       0    76.4
 148   23:00   69.5    25    2.1    19      4.2   925.6    0.00       0    76.2
 148   23:10   69.3    25    3.4    56      5.4   925.5    0.00       0    76.0
 148   23:20   68.6    26    3.2    39      5.8   925.5    0.00       0    75.8
 148   23:30   69.2    25    0.9   193      2.4   925.6    0.00       0    75.6
 148   23:40   68.9    26    1.5   188      3.0   925.6    0.00       0    75.3
 148   23:50   68.0    28    2.7   161      3.1   925.5    0.00       0    75.2
 149    0:00   68.0    27    1.2   173      2.3   925.5    0.00       0    75.0
 149    0:10   68.2    27    1.1   260      2.6   925.5    0.00       0    74.7
 149    0:20   68.2    27    0.4   334      1.5   925.4    0.00       0    74.6
 149    0:30   68.0    27    0.7   356      2.3   925.4    0.00       0    74.4
 149    0:40   67.8    27    2.4   353      3.7   925.3    0.00       0    74.3
 149    0:50   67.5    27    3.4     6      5.4   925.2    0.00       0    74.1
 149    1:00   67.4    27    2.2   338      4.5   925.1    0.00       0    74.0
 149    1:10   67.6    27    1.1   303      3.8   925.1    0.00       0    73.8
 149    1:20   67.7    27    1.8   236      3.6   925.0    0.00       0    73.6
 149    1:30   67.2    28    1.3   211      2.8   924.9    0.00       0    73.4
 149    1:40   67.0    28    1.4   102      2.6   924.7    0.00       0    73.3
 149    1:50   67.2    28    1.4    77      2.6   924.6    0.00       0    73.2
 149    2:00   67.3    28    0.7   216      2.3   924.6    0.00       0    73.0
 149    2:10   67.6    27    1.8   235      2.6   924.5    0.00       0    72.7
 149    2:20   67.4    27    1.9   188      2.9   924.5    0.00       0    72.6
 149    2:30   67.2    27    1.5   193      2.0   924.5    0.00       0    72.4
 149    2:40   67.4    26    1.1   175      1.8   924.4    0.00       0    72.2
 149    2:50   67.6    26    0.6   168      1.2   924.4    0.00       0    72.0
 149    3:00   67.6    27    0.0     0      0.0   924.4    0.00       0    71.8
 149    3:10   67.7    27    0.5    26      2.9   924.4    0.00       0    71.8
 149    3:20   67.3    27    0.1     3      1.5   924.3    0.00       0    71.7
 149    3:30   67.2    27    0.0     0      0.0   924.3    0.00       0    71.4
 149    3:40   67.4    27    0.9   251      2.6   924.3    0.00       0    71.2
 149    3:50   67.4    27    2.4   290      3.7   924.3    0.00       0    71.0
 149    4:00   66.7    28    1.0   336      2.8   924.4    0.00       0    71.0
 149    4:10   66.8    28    0.4   324      2.3   924.5    0.00       0    70.9
 149    4:20   66.9    28    0.8    60      2.6   924.6    0.00       0    70.8
 149    4:30   66.9    28    1.5    78      3.4   924.6    0.00       0    70.7
 149    4:40   66.1    29    4.4    75      5.5   924.7    0.00       0    70.6
 149    4:50   65.7    30    4.3    84      5.5   924.7    0.00       1    70.6
 149    5:00   65.9    30    4.0    57      6.4   924.7    0.00       4    70.5
 149    5:10   65.4    31    4.7    36      6.9   924.8    0.00       9    70.3
 149    5:20   65.5    31    4.0    54      5.8   924.8    0.00      16    70.2
 149    5:30   66.4    30    2.9    71      4.7   924.8    0.00      20    70.0
 149    5:40   66.1    31    3.5    56      5.3   924.9    0.00      25    69.8
 149    5:50   65.6    32    4.4    51      6.5   924.9    0.00      29    69.7
 149    6:00   65.8    32    4.2    46      5.6   925.0    0.00     130    69.6
 149    6:10   68.5    29    2.0    48      3.4   925.1    0.00     218    69.5
 149    6:20   69.7    27    1.2   323      3.9   925.1    0.00     255    69.4
 149    6:30   69.7    30    3.2    25      4.7   925.2    0.00     293    69.4
 149    6:40   69.7    29    1.6   293      3.3   925.4    0.00     331    69.3
 149    6:50   69.5    34    2.9    36      4.7   925.4    0.00     370    69.3
 149    7:00   70.2    36    3.4    64      4.5   925.4    0.00     409    69.2
 149    7:10   70.9    35    0.8    34      2.7   925.4    0.00     448    69.2
 149    7:20   70.4    35    0.3   226      1.2   925.5    0.00     486    69.2
 149    7:30   70.5    33    0.5   180      2.8   925.6    0.00     508    69.2
 149    7:40   72.4    34    0.3   198      1.2   925.6    0.00     559    69.3
 149    7:50   70.5    36    1.1   229      2.3   925.7    0.00     593    69.3
 149    8:00   69.7    38    0.5   243      1.9   925.7    0.00     626    69.4
 149    8:10   72.3    38    0.6   149      2.3   925.8    0.00     659    69.6
 149    8:20   70.8    38    1.5   229      2.6   925.9    0.00     691    69.7
 149    8:30   69.0    41    1.9   266      3.1   926.0    0.00     723    69.8
 149    8:40   68.7    42    1.6   255      3.1   926.0    0.00     753    70.0
 149    8:50   70.0    40    1.8   219      4.4   925.9    0.00     785    70.2
 149    9:00   70.8    41    2.6   233      4.5   925.9    0.00     818    70.3
 149    9:10   70.7    40    2.1   265      3.5   926.0    0.00     852    70.6
 149    9:20   71.2    37    1.6   267      3.1   926.1    0.00     883    70.8
 149    9:30   71.1    39    3.0   262      4.5   926.1    0.00     909    71.1
 149    9:40   70.6    41    2.9   263      4.4   926.2    0.00     932    71.3
 149    9:50   70.4    41    2.7   257      4.5   926.2    0.00     950    71.6
 149   10:00   70.1    44    3.8   261      6.4   926.3    0.00     968    71.9
 149   10:10   68.6    44    3.1   258      5.2   926.4    0.00     985    72.2
 149   10:20   69.9    43    2.2   263      4.4   926.5    0.00    1002    72.5
 149   10:30   69.4    45    2.6   274      5.4   926.6    0.00    1020    72.8
 149   10:40   68.3    49    2.8   279      5.1   926.6    0.00    1032    73.1
 149   10:50   68.0    50    2.0   294      4.2   926.7    0.00    1037    73.3
 149   11:00   69.4    50    2.4   278      4.2   926.6    0.00    1042    73.6
 149   11:10   69.9    49    2.8   254      4.5   926.7    0.00    1048    73.9
 149   11:20   69.8    47    3.3   245      5.4   926.7    0.00    1053    74.3
 149   11:30   70.1    47    3.4   266      5.3   926.8    0.00    1056    74.5
 149   11:40   70.7    43    3.5   268      6.1   926.8    0.00    1058    74.7
 149   11:50   70.6    42    3.3   272      5.6   926.8    0.00    1058    74.9
 149   12:00   71.0    41    4.3   273      6.6   926.8    0.00    1059    75.1
 149   12:10   71.6    36    3.3   274      5.2   926.8    0.00    1060    75.2
 149   12:20   72.5    39    4.7   274      7.0   926.8    0.00    1055    75.4
 149   12:30   72.4    36    3.8   274      5.9   926.8    0.00    1050    75.5
 149   12:40   72.9    35    3.8   282      5.3   926.8    0.00    1043    75.5
 149   12:50   72.5    38    4.0   284      5.6   926.8    0.00    1036    75.7
 149   13:00   71.6    40    4.0   284      5.6   926.8    0.00    1026    75.8
 149   13:10   71.0    42    4.1   279      6.4   926.8    0.00    1013    76.0
 149   13:20   72.2    39    4.5   273      6.5   926.7    0.00    1000    76.3
 149   13:30   72.3    40    4.5   282      6.3   926.7    0.00     962    76.6
 149   13:40   71.9    40    3.2   282      5.2   926.7    0.00     974    76.9
 149   13:50   71.8    40    3.5   286      5.6   926.8    0.00     958    77.3
 149   14:00   71.7    38    4.2   286      6.0   926.8    0.00     937    77.7
 149   14:10   72.1    37    4.1   280      5.6   926.7    0.00     918    78.1
 149   14:20   72.3    36    4.1   276      6.0   926.7    0.00     896    78.5
 149   14:30   71.9    36    5.4   279      7.8   926.7    0.00     872    78.9
 149   14:40   72.0    35    5.8   266      8.3   926.7    0.00     847    79.2

Return to Highlands Peak graphs page.


Western Regional Climate Center,wrcc@dri.edu